Time;durP1;ratioP1;P1;durP2;ratioP2;P2;SDS_P1;SDS_P2;PMS_P1;PMS_P2;Temp;Humidity;BMP_temperature;BMP_pressure;BME280_temperature;BME280_humidity;BME280_pressure;Samples;Min_cycle;Max_cycle;Signal;HPM_P1;HPM_P2
2023/11/28 00:02:17;;;;;;;28.30;13.05;;;;;;;4.25;100.00;99700.03;5210690;28;20036;-74
2023/11/28 00:04:49;;;;;;;28.58;14.38;;;;;;;4.32;100.00;99698.47;5208830;28;20138;-74
2023/11/28 00:07:20;;;;;;;29.92;13.60;;;;;;;4.34;100.00;99715.88;5210270;28;20100;-73
2023/11/28 00:09:50;;;;;;;27.42;13.48;;;;;;;4.40;100.00;99722.41;5216696;28;20090;-74
2023/11/28 00:12:22;;;;;;;27.00;12.68;;;;;;;4.40;100.00;99725.88;5211691;28;20045;-73
2023/11/28 00:14:53;;;;;;;27.73;13.40;;;;;;;4.39;100.00;99734.84;5216203;28;20024;-73
2023/11/28 00:17:23;;;;;;;27.77;13.02;;;;;;;4.40;100.00;99736.50;5210086;28;20439;-74
2023/11/28 00:19:54;;;;;;;26.17;12.52;;;;;;;4.35;100.00;99744.09;5214881;28;20078;-74
2023/11/28 00:22:24;;;;;;;26.83;13.18;;;;;;;4.40;100.00;99749.78;5216210;28;20026;-74
2023/11/28 00:24:55;;;;;;;24.77;12.52;;;;;;;4.41;100.00;99743.47;5214717;28;20064;-73
2023/11/28 00:27:25;;;;;;;26.27;12.52;;;;;;;4.47;100.00;99751.81;5213802;28;20098;-73
2023/11/28 00:29:56;;;;;;;25.35;11.85;;;;;;;4.45;100.00;99757.31;5212723;28;20013;-73
2023/11/28 00:32:26;;;;;;;28.33;12.88;;;;;;;4.46;100.00;99763.44;5203837;28;20030;-73
2023/11/28 00:34:57;;;;;;;25.20;11.98;;;;;;;4.49;100.00;99771.13;5206729;28;20033;-74
2023/11/28 00:37:27;;;;;;;24.48;11.45;;;;;;;4.56;100.00;99765.03;5211098;28;20037;-74
2023/11/28 00:39:58;;;;;;;23.90;11.55;;;;;;;4.53;100.00;99775.13;5212919;28;20021;-74
2023/11/28 00:42:29;;;;;;;23.50;11.40;;;;;;;4.60;100.00;99768.22;5208375;28;20091;-74
2023/11/28 00:44:59;;;;;;;25.85;12.82;;;;;;;4.66;100.00;99772.91;5211017;28;20040;-74
2023/11/28 00:47:30;;;;;;;23.00;11.38;;;;;;;4.69;100.00;99775.25;5214875;28;20024;-74
2023/11/28 00:50:01;;;;;;;23.23;11.77;;;;;;;4.62;100.00;99777.72;5208114;28;20029;-74
2023/11/28 00:52:31;;;;;;;26.35;12.45;;;;;;;4.64;100.00;99786.34;5212100;28;20037;-74
2023/11/28 00:55:02;;;;;;;24.17;12.13;;;;;;;4.68;100.00;99784.22;5213023;28;20100;-74
2023/11/28 00:57:32;;;;;;;23.80;11.75;;;;;;;4.71;100.00;99799.00;5213360;28;20028;-74
2023/11/28 01:00:09;;;;;;;24.70;12.43;;;;;;;4.69;100.00;99804.47;5210657;28;20555;-74
2023/11/28 01:02:40;;;;;;;22.65;10.35;;;;;;;4.74;100.00;99812.00;5213594;28;20053;-74
2023/11/28 01:05:11;;;;;;;23.98;11.15;;;;;;;4.63;100.00;99811.25;5211912;28;20021;-75
2023/11/28 01:07:42;;;;;;;24.70;11.95;;;;;;;4.68;100.00;99813.44;5200980;28;20056;-74
2023/11/28 01:10:12;;;;;;;22.27;11.13;;;;;;;4.69;100.00;99820.44;5204624;28;20027;-74
2023/11/28 01:12:43;;;;;;;25.70;11.02;;;;;;;4.69;100.00;99831.06;5199769;28;20040;-74
2023/11/28 01:15:13;;;;;;;23.67;10.77;;;;;;;4.71;100.00;99834.38;5199919;28;20521;-75
2023/11/28 01:17:44;;;;;;;24.98;11.93;;;;;;;4.75;100.00;99843.72;5210649;28;20083;-74
2023/11/28 01:20:14;;;;;;;25.25;12.35;;;;;;;4.74;100.00;99846.53;5203102;28;20028;-74
2023/11/28 01:22:45;;;;;;;24.40;12.18;;;;;;;4.65;100.00;99842.97;5207498;28;20033;-74
2023/11/28 01:25:15;;;;;;;21.77;11.30;;;;;;;4.69;100.00;99852.31;5207807;28;20026;-72
2023/11/28 01:27:46;;;;;;;26.05;11.95;;;;;;;4.61;100.00;99854.88;5210255;28;20060;-72
2023/11/28 01:30:16;;;;;;;24.77;12.38;;;;;;;4.64;100.00;99858.06;5198712;28;20017;-72
2023/11/28 01:32:47;;;;;;;25.30;11.98;;;;;;;4.63;100.00;99863.56;5199415;28;20036;-72
2023/11/28 01:35:17;;;;;;;26.83;13.10;;;;;;;4.55;100.00;99868.78;5206851;28;20023;-72
2023/11/28 01:37:48;;;;;;;23.77;11.63;;;;;;;4.53;100.00;99879.56;5199987;28;20026;-72
2023/11/28 01:40:18;;;;;;;27.15;13.45;;;;;;;4.59;100.00;99880.78;5202914;28;20026;-72
2023/11/28 01:42:49;;;;;;;28.20;13.15;;;;;;;4.59;100.00;99894.06;5200083;28;20026;-72
2023/11/28 01:45:22;;;;;;;25.90;12.30;;;;;;;4.57;100.00;99896.03;5200628;28;20503;-72
2023/11/28 01:47:53;;;;;;;25.95;12.27;;;;;;;4.62;100.00;99905.22;5198417;28;20498;-72
2023/11/28 01:50:24;;;;;;;27.23;13.32;;;;;;;4.63;100.00;99901.56;5198734;28;20017;-72
2023/11/28 01:52:54;;;;;;;28.55;14.25;;;;;;;4.68;100.00;99909.09;5206750;28;20034;-72
2023/11/28 01:55:25;;;;;;;26.92;12.52;;;;;;;4.64;100.00;99913.03;5200061;28;20030;-72
2023/11/28 01:57:56;;;;;;;26.23;13.35;;;;;;;4.61;100.00;99911.50;5200737;28;20057;-73
2023/11/28 02:00:26;;;;;;;23.35;11.98;;;;;;;4.60;100.00;99920.47;5209376;28;20052;-74
2023/11/28 02:02:59;;;;;;;23.48;12.05;;;;;;;4.67;100.00;99926.03;5212619;28;20083;-74
2023/11/28 02:05:31;;;;;;;25.42;12.60;;;;;;;4.73;100.00;99929.91;5207560;28;20038;-74
2023/11/28 02:08:02;;;;;;;23.23;12.30;;;;;;;4.74;100.00;99937.72;5204472;28;20025;-74
2023/11/28 02:10:35;;;;;;;22.95;11.82;;;;;;;4.69;100.00;99937.31;5204524;28;20025;-74
2023/11/28 02:13:06;;;;;;;20.77;11.35;;;;;;;4.67;100.00;99942.81;5201145;28;20128;-74
2023/11/28 02:15:44;;;;;;;24.63;12.32;;;;;;;4.69;100.00;99945.31;5193864;28;20030;-75
2023/11/28 02:18:24;;;;;;;22.45;11.90;;;;;;;4.66;100.00;99964.19;5206538;28;20410;-74
2023/11/28 02:20:55;;;;;;;21.15;11.00;;;;;;;4.69;100.00;99955.94;5207128;28;20025;-74
2023/11/28 02:23:25;;;;;;;19.52;10.93;;;;;;;4.66;100.00;99966.84;5205530;28;20452;-74
2023/11/28 02:26:02;;;;;;;19.95;10.75;;;;;;;4.70;100.00;99968.22;5204389;28;20487;-74
2023/11/28 02:28:32;;;;;;;16.88;9.40;;;;;;;4.72;100.00;99978.69;5201640;28;20507;-74
2023/11/28 02:31:03;;;;;;;18.55;10.25;;;;;;;4.68;100.00;99967.56;5206052;28;20121;-74
2023/11/28 02:33:34;;;;;;;18.58;9.90;;;;;;;4.72;100.00;99987.53;5219381;28;20073;-74
2023/11/28 02:36:05;;;;;;;20.33;10.10;;;;;;;4.76;100.00;99985.38;5216615;28;20390;-74
2023/11/28 02:38:35;;;;;;;17.88;10.02;;;;;;;4.77;100.00;99989.72;5211815;28;20553;-74
2023/11/28 02:41:06;;;;;;;15.57;9.15;;;;;;;4.75;100.00;99989.88;5204486;28;20488;-74
2023/11/28 02:43:37;;;;;;;16.45;8.98;;;;;;;4.73;100.00;99997.16;5204276;28;20711;-74
2023/11/28 02:46:07;;;;;;;16.88;9.40;;;;;;;4.74;100.00;100009.47;5205328;28;20036;-74
2023/11/28 02:48:40;;;;;;;16.27;8.95;;;;;;;4.74;100.00;100013.94;5204214;28;20025;-74
2023/11/28 02:51:11;;;;;;;16.85;9.35;;;;;;;4.73;100.00;100005.13;5204089;28;20095;-74
2023/11/28 02:53:42;;;;;;;16.85;9.70;;;;;;;4.68;100.00;100010.06;5207669;28;20025;-74
2023/11/28 02:56:13;;;;;;;13.85;8.00;;;;;;;4.63;100.00;100022.94;5207791;28;20506;-74
2023/11/28 02:58:43;;;;;;;17.58;9.80;;;;;;;4.62;100.00;100032.75;5205986;28;20021;-74
2023/11/28 03:01:14;;;;;;;15.43;8.60;;;;;;;4.66;100.00;100030.59;5204531;28;20034;-74
2023/11/28 03:03:45;;;;;;;16.60;9.05;;;;;;;4.72;100.00;100047.78;5207172;28;20032;-74
2023/11/28 03:06:15;;;;;;;16.95;9.50;;;;;;;4.71;100.00;100048.75;5214776;28;20018;-74
2023/11/28 03:08:46;;;;;;;15.43;8.27;;;;;;;4.67;100.00;100049.06;5215314;28;20096;-74
2023/11/28 03:11:16;;;;;;;17.45;8.90;;;;;;;4.67;100.00;100059.72;5207933;28;20030;-74
2023/11/28 03:13:47;;;;;;;15.18;8.73;;;;;;;4.72;100.00;100043.31;5210762;28;20017;-74
2023/11/28 03:16:18;;;;;;;17.15;9.73;;;;;;;4.60;100.00;100057.78;5204664;28;20041;-74
2023/11/28 03:18:48;;;;;;;24.35;10.63;;;;;;;4.59;100.00;100056.09;5204796;28;20040;-74
2023/11/28 03:21:19;;;;;;;18.80;9.63;;;;;;;4.55;100.00;100062.69;5209865;28;20040;-74
2023/11/28 03:23:50;;;;;;;19.63;10.63;;;;;;;4.53;100.00;100068.16;5210577;28;20506;-74
2023/11/28 03:26:20;;;;;;;19.55;10.77;;;;;;;4.58;100.00;100073.88;5214537;28;20033;-74
2023/11/28 03:28:51;;;;;;;21.95;12.30;;;;;;;4.58;100.00;100067.72;5205340;28;20140;-74
2023/11/28 03:31:22;;;;;;;21.85;11.38;;;;;;;4.58;100.00;100081.00;5204983;28;20492;-74
2023/11/28 03:33:52;;;;;;;22.63;12.43;;;;;;;4.62;100.00;100077.91;5210956;28;20418;-74
2023/11/28 03:36:23;;;;;;;23.02;11.73;;;;;;;4.51;100.00;100074.59;5207883;28;20029;-74
2023/11/28 03:38:54;;;;;;;23.05;11.82;;;;;;;4.53;100.00;100084.09;5206296;28;20025;-74
2023/11/28 03:41:24;;;;;;;22.58;11.48;;;;;;;4.56;100.00;100090.91;5207308;28;20044;-74
2023/11/28 03:43:55;;;;;;;24.50;12.00;;;;;;;4.50;100.00;100088.84;5204380;28;20048;-74
2023/11/28 03:46:25;;;;;;;24.85;12.10;;;;;;;4.45;100.00;100102.56;5204654;28;20034;-74
2023/11/28 03:48:56;;;;;;;25.02;13.20;;;;;;;4.39;100.00;100098.69;5211061;28;20021;-74
2023/11/28 03:51:26;;;;;;;22.20;12.35;;;;;;;4.41;100.00;100098.53;5211291;28;20438;-74
2023/11/28 03:53:57;;;;;;;26.73;13.52;;;;;;;4.34;100.00;100103.59;5205395;28;20029;-72
2023/11/28 03:56:28;;;;;;;33.67;15.80;;;;;;;4.37;100.00;100107.78;5212814;28;20036;-72
2023/11/28 03:58:58;;;;;;;21.42;11.70;;;;;;;4.39;100.00;100119.09;5211216;28;20045;-72
2023/11/28 04:01:29;;;;;;;26.70;13.50;;;;;;;4.37;100.00;100124.56;5208632;28;20108;-72
2023/11/28 04:03:59;;;;;;;25.77;13.07;;;;;;;4.40;100.00;100128.72;5207788;28;20498;-72
2023/11/28 04:06:30;;;;;;;22.55;12.13;;;;;;;4.43;100.00;100140.91;5210311;28;20090;-72
2023/11/28 04:09:00;;;;;;;23.33;12.57;;;;;;;4.39;100.00;100143.81;5209588;28;20018;-72
2023/11/28 04:11:31;;;;;;;23.00;11.73;;;;;;;4.36;100.00;100151.22;5204581;28;20029;-72
2023/11/28 04:14:02;;;;;;;22.77;11.60;;;;;;;4.36;100.00;100152.06;5208200;28;20028;-72
2023/11/28 04:16:32;;;;;;;25.60;12.70;;;;;;;4.30;100.00;100160.59;5212681;28;20033;-72
2023/11/28 04:19:03;;;;;;;23.00;12.05;;;;;;;4.36;100.00;100167.16;5208896;28;20082;-72
2023/11/28 04:21:33;;;;;;;24.27;12.75;;;;;;;4.35;100.00;100173.47;5207674;28;20040;-72
2023/11/28 04:24:04;;;;;;;21.55;11.65;;;;;;;4.41;100.00;100181.69;5210643;28;20029;-72
2023/11/28 04:26:39;;;;;;;23.52;12.38;;;;;;;4.34;100.00;100185.91;5209650;28;20072;-72
2023/11/28 04:29:09;;;;;;;21.80;11.35;;;;;;;4.37;100.00;100188.28;5209090;28;20024;-72
2023/11/28 04:31:40;;;;;;;23.40;12.05;;;;;;;4.24;100.00;100197.53;5207232;28;20041;-72
2023/11/28 04:34:10;;;;;;;21.48;10.95;;;;;;;4.25;100.00;100205.34;5214752;28;20123;-72
2023/11/28 04:36:41;;;;;;;20.23;11.02;;;;;;;4.34;100.00;100208.97;5208116;28;20025;-72
2023/11/28 04:39:12;;;;;;;20.27;10.98;;;;;;;4.24;100.00;100206.31;5208455;28;20040;-72
2023/11/28 04:41:42;;;;;;;20.17;9.93;;;;;;;4.16;100.00;100201.69;5204439;28;20025;-72
2023/11/28 04:44:13;;;;;;;15.52;8.93;;;;;;;4.15;100.00;100215.97;5204281;28;20076;-72
2023/11/28 04:46:43;;;;;;;19.45;9.77;;;;;;;4.19;100.00;100215.69;5204179;28;20029;-72
2023/11/28 04:49:15;;;;;;;17.17;9.35;;;;;;;4.14;100.00;100219.59;5202058;28;20439;-72
2023/11/28 04:51:45;;;;;;;22.08;10.90;;;;;;;4.16;100.00;100224.75;5206168;28;20094;-72
2023/11/28 04:54:16;;;;;;;21.85;11.35;;;;;;;4.14;100.00;100232.03;5209890;28;20025;-72
2023/11/28 04:56:46;;;;;;;22.38;12.35;;;;;;;4.14;100.00;100229.38;5211157;28;20036;-72
2023/11/28 04:59:17;;;;;;;19.00;10.55;;;;;;;4.20;100.00;100243.91;5204666;28;20518;-72
2023/11/28 05:01:47;;;;;;;21.70;10.65;;;;;;;4.22;100.00;100242.81;5208723;28;20107;-72
2023/11/28 05:04:18;;;;;;;23.63;11.60;;;;;;;4.18;100.00;100249.38;5205626;28;20056;-74
2023/11/28 05:06:48;;;;;;;23.33;11.95;;;;;;;4.18;100.00;100252.03;5215749;28;20037;-74
2023/11/28 05:09:20;;;;;;;22.85;11.52;;;;;;;4.19;100.00;100252.88;5201565;28;20045;-75
2023/11/28 05:11:50;;;;;;;24.50;11.55;;;;;;;4.13;100.00;100257.75;5209459;28;20063;-74
2023/11/28 05:14:21;;;;;;;20.45;10.63;;;;;;;4.17;100.00;100271.59;5217704;28;20025;-72
2023/11/28 05:16:51;;;;;;;18.85;10.10;;;;;;;4.13;100.00;100272.84;5208193;28;20032;-72
2023/11/28 05:19:22;;;;;;;19.70;10.15;;;;;;;4.16;100.00;100291.97;5211957;28;20034;-72
2023/11/28 05:21:53;;;;;;;19.33;9.65;;;;;;;4.16;100.00;100297.28;5210777;28;20025;-72
2023/11/28 05:24:24;;;;;;;20.08;9.32;;;;;;;4.05;100.00;100291.25;5211045;28;20026;-72
2023/11/28 05:26:56;;;;;;;20.23;10.30;;;;;;;4.07;100.00;100299.94;5217310;28;20056;-72
2023/11/28 05:29:27;;;;;;;18.58;9.80;;;;;;;4.05;100.00;100302.72;5203448;28;20021;-72
2023/11/28 05:31:57;;;;;;;18.00;9.23;;;;;;;4.03;100.00;100295.88;5209409;28;20506;-72
2023/11/28 05:34:28;;;;;;;21.40;10.18;;;;;;;3.99;100.00;100305.09;5202721;28;20033;-74
2023/11/28 05:36:58;;;;;;;20.55;9.73;;;;;;;3.92;100.00;100299.50;5206793;28;20100;-74
2023/11/28 05:39:29;;;;;;;20.67;10.02;;;;;;;3.88;100.00;100311.38;5210577;28;20739;-74
2023/11/28 05:42:00;;;;;;;19.25;9.75;;;;;;;3.85;100.00;100308.97;5213145;28;20364;-74
2023/11/28 05:44:30;;;;;;;16.95;8.93;;;;;;;3.83;100.00;100311.78;5209585;28;20026;-74
2023/11/28 05:47:00;;;;;;;19.25;9.73;;;;;;;3.81;100.00;100310.22;5213355;28;20486;-72
2023/11/28 05:49:31;;;;;;;20.60;10.35;;;;;;;3.81;100.00;100320.81;5208767;28;20343;-72
2023/11/28 05:52:03;;;;;;;17.65;9.32;;;;;;;3.85;100.00;100324.88;5202626;28;20033;-72
2023/11/28 05:54:33;;;;;;;21.08;9.98;;;;;;;3.87;100.00;100328.28;5203021;28;20087;-73
2023/11/28 05:57:04;;;;;;;20.65;9.60;;;;;;;3.88;100.00;100346.69;5198732;28;20484;-74
2023/11/28 05:59:35;;;;;;;20.42;10.20;;;;;;;3.88;100.00;100346.69;5219565;28;20507;-75
2023/11/28 06:02:08;;;;;;;21.52;9.82;;;;;;;3.89;100.00;100363.47;5213489;28;20504;-75
2023/11/28 06:04:38;;;;;;;22.35;11.00;;;;;;;3.92;100.00;100368.50;5192245;28;20037;-75
2023/11/28 06:07:09;;;;;;;20.27;10.45;;;;;;;3.92;100.00;100365.03;5201757;28;20036;-75
2023/11/28 06:09:39;;;;;;;21.90;10.52;;;;;;;3.95;100.00;100373.53;5198988;28;20029;-75
2023/11/28 06:12:10;;;;;;;21.50;10.88;;;;;;;3.99;100.00;100372.28;5204970;28;20061;-75
2023/11/28 06:14:41;;;;;;;21.67;10.55;;;;;;;3.87;100.00;100366.25;5208936;28;20028;-75
2023/11/28 06:17:12;;;;;;;17.08;8.80;;;;;;;3.82;100.00;100372.94;5214885;28;20125;-75
2023/11/28 06:19:42;;;;;;;18.75;9.80;;;;;;;3.71;100.00;100373.84;5212502;28;20028;-75
2023/11/28 06:22:13;;;;;;;21.02;10.15;;;;;;;3.75;100.00;100388.53;5217526;28;20083;-75
2023/11/28 06:24:43;;;;;;;21.30;10.10;;;;;;;3.80;100.00;100396.94;5209656;28;20056;-74
2023/11/28 06:27:14;;;;;;;19.67;10.63;;;;;;;3.83;100.00;100401.16;5207354;28;20135;-72
2023/11/28 06:29:44;;;;;;;22.55;11.55;;;;;;;3.84;100.00;100406.31;5210437;28;20017;-73
2023/11/28 06:32:15;;;;;;;22.30;11.50;;;;;;;3.83;100.00;100409.94;5206060;28;20494;-74
2023/11/28 06:34:47;;;;;;;21.10;10.25;;;;;;;3.78;100.00;100425.44;5207736;28;20372;-74
2023/11/28 06:37:17;;;;;;;19.63;11.05;;;;;;;3.81;100.00;100422.50;5207129;28;20033;-74
2023/11/28 06:39:48;;;;;;;20.13;10.45;;;;;;;3.85;100.00;100431.03;5210305;28;20044;-74
2023/11/28 06:42:20;;;;;;;21.70;10.73;;;;;;;3.83;100.00;100430.34;5208350;28;20029;-74
2023/11/28 06:44:50;;;;;;;18.30;9.10;;;;;;;3.70;100.00;100438.50;5214758;28;20029;-74
2023/11/28 06:47:22;;;;;;;17.65;9.07;;;;;;;3.66;100.00;100429.13;5198343;28;20103;-74
2023/11/28 06:49:53;;;;;;;15.70;8.15;;;;;;;3.58;100.00;100444.88;5199605;28;20040;-74
2023/11/28 06:52:24;;;;;;;15.18;7.30;;;;;;;3.54;100.00;100459.38;5207863;28;20423;-74
2023/11/28 06:54:54;;;;;;;17.00;8.20;;;;;;;3.51;100.00;100464.91;5212467;28;20082;-73
2023/11/28 06:57:25;;;;;;;12.55;6.93;;;;;;;3.35;100.00;100468.88;5216328;28;20472;-74
2023/11/28 06:59:55;;;;;;;12.18;5.55;;;;;;;3.27;100.00;100479.28;5205639;28;20025;-74
2023/11/28 07:02:26;;;;;;;11.32;5.80;;;;;;;3.28;100.00;100496.88;5206857;28;20472;-74
2023/11/28 07:04:57;;;;;;;11.68;5.75;;;;;;;3.18;100.00;100497.78;5200821;28;20085;-73
2023/11/28 07:07:27;;;;;;;12.25;5.63;;;;;;;3.19;100.00;100502.94;5212303;28;20225;-74
2023/11/28 07:09:58;;;;;;;10.50;5.03;;;;;;;3.17;100.00;100509.34;5212049;28;20032;-74
2023/11/28 07:12:28;;;;;;;10.30;5.03;;;;;;;3.10;100.00;100520.44;5214259;28;20043;-74
2023/11/28 07:14:58;;;;;;;7.75;4.57;;;;;;;3.01;100.00;100528.28;5227627;28;20063;-74
2023/11/28 07:17:31;;;;;;;9.45;4.05;;;;;;;3.05;100.00;100543.81;5209471;28;20025;-73
2023/11/28 07:20:02;;;;;;;10.45;4.00;;;;;;;2.99;100.00;100554.94;5208002;28;20021;-73
2023/11/28 07:22:33;;;;;;;8.02;3.75;;;;;;;2.91;100.00;100556.50;5211618;28;20030;-73
2023/11/28 07:25:04;;;;;;;9.00;4.07;;;;;;;2.80;100.00;100555.56;5210356;28;20027;-73
2023/11/28 07:27:35;;;;;;;6.25;3.47;;;;;;;2.71;100.00;100558.97;5208684;28;20550;-73
2023/11/28 07:30:07;;;;;;;8.93;3.83;;;;;;;2.66;100.00;100562.94;5208734;28;20707;-73
2023/11/28 07:32:37;;;;;;;6.60;3.15;;;;;;;2.53;100.00;100565.72;5204883;28;20052;-74
2023/11/28 07:35:08;;;;;;;7.40;3.45;;;;;;;2.41;100.00;100572.84;5210814;28;20025;-74
2023/11/28 07:37:39;;;;;;;7.13;3.38;;;;;;;2.32;100.00;100577.06;5209560;28;20033;-73
2023/11/28 07:40:10;;;;;;;8.35;3.47;;;;;;;2.33;100.00;100584.03;5202028;28;20021;-73
2023/11/28 07:42:41;;;;;;;8.82;4.32;;;;;;;2.31;100.00;100590.41;5213911;28;20044;-74
2023/11/28 07:45:11;;;;;;;6.07;3.22;;;;;;;2.29;100.00;100592.31;5205053;28;20099;-73
2023/11/28 07:47:42;;;;;;;7.78;3.33;;;;;;;2.28;100.00;100594.13;5207899;28;20032;-73
2023/11/28 07:50:13;;;;;;;8.52;3.58;;;;;;;2.28;100.00;100607.38;5206555;28;20032;-74
2023/11/28 07:52:43;;;;;;;6.45;3.47;;;;;;;2.27;100.00;100608.34;5206018;28;20033;-73
2023/11/28 07:55:14;;;;;;;7.63;3.85;;;;;;;2.20;100.00;100604.47;5212230;28;20936;-73
2023/11/28 07:57:44;;;;;;;7.88;3.85;;;;;;;2.20;100.00;100617.69;5207563;28;20036;-73
2023/11/28 08:00:15;;;;;;;10.05;3.78;;;;;;;2.21;100.00;100621.19;5208798;28;20017;-73
2023/11/28 08:02:47;;;;;;;11.95;6.00;;;;;;;2.25;100.00;100623.47;5212113;28;20075;-73
2023/11/28 08:05:17;;;;;;;9.02;4.10;;;;;;;2.31;100.00;100628.31;5216157;28;20025;-73
2023/11/28 08:07:48;;;;;;;7.47;3.95;;;;;;;2.31;100.00;100624.84;5211822;28;20029;-73
2023/11/28 08:10:18;;;;;;;8.85;4.35;;;;;;;2.40;100.00;100636.50;5208821;28;20087;-73
2023/11/28 08:12:49;;;;;;;10.80;4.13;;;;;;;2.43;100.00;100642.41;5198794;28;20111;-73
2023/11/28 08:15:20;;;;;;;7.55;3.63;;;;;;;2.52;100.00;100646.16;5206461;28;20052;-73
2023/11/28 08:17:51;;;;;;;11.23;4.28;;;;;;;2.57;100.00;100657.22;5211667;28;20082;-73
2023/11/28 08:20:21;;;;;;;10.20;4.25;;;;;;;2.56;100.00;100660.81;5211881;28;20036;-73
2023/11/28 08:22:53;;;;;;;9.73;4.25;;;;;;;2.57;100.00;100668.66;5210005;28;20033;-73
2023/11/28 08:25:23;;;;;;;14.75;4.25;;;;;;;2.52;100.00;100669.97;5207338;28;20030;-73
2023/11/28 08:27:54;;;;;;;7.57;3.90;;;;;;;2.64;100.00;100681.41;5206742;28;20028;-73
2023/11/28 08:30:24;;;;;;;7.97;4.13;;;;;;;2.70;100.00;100694.19;5210732;28;20776;-73
2023/11/28 08:32:55;;;;;;;10.65;3.92;;;;;;;2.79;100.00;100701.41;5201940;28;20034;-73
2023/11/28 08:35:26;;;;;;;8.85;3.78;;;;;;;2.87;100.00;100706.97;5209266;28;20115;-73
2023/11/28 08:37:56;;;;;;;8.52;4.43;;;;;;;2.90;100.00;100708.53;5207938;28;20032;-73
2023/11/28 08:40:27;;;;;;;8.57;4.07;;;;;;;3.04;100.00;100708.28;5209252;28;20033;-73
2023/11/28 08:42:57;;;;;;;9.13;4.00;;;;;;;3.41;100.00;100713.28;5208445;28;20025;-73
2023/11/28 08:45:28;;;;;;;9.98;4.47;;;;;;;3.75;100.00;100712.25;5203885;28;20036;-73
2023/11/28 08:47:58;;;;;;;7.88;4.25;;;;;;;4.14;100.00;100715.25;5210423;28;20096;-74
2023/11/28 08:50:29;;;;;;;9.48;4.15;;;;;;;4.28;100.00;100709.63;5204528;28;20021;-73
2023/11/28 08:52:59;;;;;;;5.82;3.50;;;;;;;4.44;100.00;100713.63;5209671;28;20514;-72
2023/11/28 08:55:30;;;;;;;6.45;3.25;;;;;;;4.80;100.00;100707.81;5211669;28;20037;-73
2023/11/28 08:58:00;;;;;;;7.38;3.50;;;;;;;5.08;100.00;100708.09;5203855;28;20029;-74
2023/11/28 09:00:31;;;;;;;6.95;3.40;;;;;;;5.30;100.00;100712.38;5205601;28;20017;-73
2023/11/28 09:03:03;;;;;;;5.80;3.20;;;;;;;5.46;100.00;100710.03;5205399;28;20510;-74
2023/11/28 09:05:33;;;;;;;5.82;3.40;;;;;;;5.56;100.00;100715.38;5210444;28;20400;-74
2023/11/28 09:08:04;;;;;;;5.97;3.20;;;;;;;5.78;100.00;100722.28;5205441;28;20034;-75
2023/11/28 09:10:34;;;;;;;5.47;3.50;;;;;;;5.90;100.00;100726.50;5202430;28;20025;-74
2023/11/28 09:13:05;;;;;;;5.47;3.22;;;;;;;5.87;100.00;100724.97;5211830;28;20032;-74
2023/11/28 09:15:36;;;;;;;4.38;2.83;;;;;;;6.00;100.00;100731.84;5216012;28;20028;-74
2023/11/28 09:18:06;;;;;;;7.93;3.55;;;;;;;6.10;100.00;100730.03;5206826;28;20074;-74
2023/11/28 09:20:37;;;;;;;5.93;3.08;;;;;;;6.17;100.00;100728.47;5206163;28;20116;-74
2023/11/28 09:23:07;;;;;;;5.35;3.22;;;;;;;6.30;100.00;100723.72;5210409;28;20109;-74
2023/11/28 09:25:38;;;;;;;6.43;3.35;;;;;;;6.37;100.00;100730.16;5213420;28;20033;-74
2023/11/28 09:28:09;;;;;;;8.45;3.05;;;;;;;6.41;100.00;100736.88;5209346;28;20533;-74
2023/11/28 09:30:40;;;;;;;8.02;3.22;;;;;;;6.53;100.00;100742.06;5208979;28;20057;-74
2023/11/28 09:33:10;;;;;;;7.18;3.17;;;;;;;6.53;100.00;100742.91;5203117;28;20472;-74
2023/11/28 09:35:41;;;;;;;7.25;3.17;;;;;;;6.52;100.00;100743.03;5209320;28;20024;-74
2023/11/28 09:38:12;;;;;;;6.07;3.10;;;;;;;6.60;100.00;100752.00;5202382;28;20025;-74
2023/11/28 09:40:42;;;;;;;5.38;2.90;;;;;;;6.50;100.00;100761.84;5206523;28;20475;-74
2023/11/28 09:43:13;;;;;;;5.75;2.60;;;;;;;6.26;100.00;100759.59;5200977;28;20087;-74
2023/11/28 09:45:44;;;;;;;6.05;2.88;;;;;;;6.28;100.00;100778.97;5209123;28;20101;-74
2023/11/28 09:48:16;;;;;;;6.03;3.20;;;;;;;6.25;100.00;100776.56;5207973;28;20053;-74
2023/11/28 09:50:51;;;;;;;13.73;2.92;;;;;;;6.28;100.00;100773.66;5211787;28;20490;-75
2023/11/28 09:53:23;;;;;;;5.55;2.85;;;;;;;6.39;100.00;100772.66;5215043;28;20040;-74
2023/11/28 09:55:55;;;;;;;4.88;2.80;;;;;;;6.27;100.00;100782.59;5210548;28;20404;-74
2023/11/28 09:58:27;;;;;;;4.57;2.53;;;;;;;6.20;100.00;100778.81;5215730;28;20043;-74
2023/11/28 10:01:01;;;;;;;3.92;2.75;;;;;;;6.22;100.00;100780.38;5211073;28;20072;-74
2023/11/28 10:03:32;;;;;;;9.17;3.00;;;;;;;6.17;100.00;100781.75;5219093;28;20021;-74
2023/11/28 10:06:04;;;;;;;5.70;2.92;;;;;;;6.13;100.00;100781.22;5212191;28;20051;-74
2023/11/28 10:08:36;;;;;;;4.47;2.95;;;;;;;6.16;100.00;100783.56;5209044;28;20026;-74
2023/11/28 10:11:07;;;;;;;5.47;3.10;;;;;;;6.20;100.00;100782.31;5218876;28;20041;-74
2023/11/28 10:13:38;;;;;;;4.70;2.97;;;;;;;6.39;100.00;100792.16;5216545;28;20072;-74
2023/11/28 10:16:08;;;;;;;7.88;3.22;;;;;;;6.44;100.00;100797.91;5210231;28;20510;-74
2023/11/28 10:18:45;;;;;;;5.22;2.72;;;;;;;6.61;100.00;100799.00;5212704;28;20022;-75
2023/11/28 10:21:16;;;;;;;6.85;2.60;;;;;;;6.63;100.00;100793.53;5214786;28;20032;-75
2023/11/28 10:23:47;;;;;;;6.60;3.17;;;;;;;6.70;100.00;100799.97;5215805;28;20032;-75
2023/11/28 10:26:17;;;;;;;6.38;3.05;;;;;;;6.88;100.00;100803.63;5212367;28;20044;-74
2023/11/28 10:28:48;;;;;;;4.35;2.50;;;;;;;6.86;100.00;100800.22;5217029;28;20410;-75
2023/11/28 10:31:19;;;;;;;4.40;2.50;;;;;;;6.86;100.00;100802.06;5212853;28;20033;-75
2023/11/28 10:33:51;;;;;;;4.65;2.30;;;;;;;6.95;100.00;100796.69;5203796;28;20021;-75
2023/11/28 10:36:22;;;;;;;4.38;2.67;;;;;;;6.84;100.00;100796.88;5218074;28;20037;-75
2023/11/28 10:38:52;;;;;;;5.35;3.00;;;;;;;6.92;100.00;100801.47;5209425;28;20033;-75
2023/11/28 10:41:32;;;;;;;4.57;2.22;;;;;;;6.86;100.00;100791.38;5211876;28;20520;-75
2023/11/28 10:44:02;;;;;;;4.57;2.88;;;;;;;6.94;100.00;100800.38;5212428;28;20472;-75
2023/11/28 10:46:34;;;;;;;2.97;2.28;;;;;;;6.96;100.00;100802.88;5213793;28;20032;-75
2023/11/28 10:49:05;;;;;;;2.88;2.00;;;;;;;6.88;100.00;100800.94;5213368;28;20020;-75
2023/11/28 10:51:36;;;;;;;3.15;2.05;;;;;;;6.74;100.00;100806.72;5211806;28;20040;-75
2023/11/28 10:54:09;;;;;;;4.72;2.40;;;;;;;6.82;100.00;100806.00;5212510;28;20048;-75
2023/11/28 10:56:47;;;;;;;8.82;2.28;;;;;;;6.97;100.00;100797.38;5208667;28;20103;-75
2023/11/28 10:59:29;;;;;;;6.13;2.80;;;;;;;6.93;100.00;100803.19;5206729;28;20020;-75
2023/11/28 11:02:01;;;;;;;3.03;1.73;;;;;;;6.93;100.00;100804.03;5205408;28;20028;-74
2023/11/28 11:04:32;;;;;;;5.05;2.67;;;;;;;6.87;100.00;100799.25;5204564;28;20029;-74
2023/11/28 11:07:03;;;;;;;4.43;1.92;;;;;;;6.85;100.00;100793.22;5202708;28;20049;-74
2023/11/28 11:09:35;;;;;;;4.90;2.50;;;;;;;6.82;100.00;100798.00;5206643;28;20020;-74
2023/11/28 11:12:07;;;;;;;5.78;2.53;;;;;;;6.89;100.00;100796.44;5207151;28;20511;-74
2023/11/28 11:14:48;;;;;;;4.32;2.28;;;;;;;6.88;100.00;100798.28;5203703;28;20021;-74
2023/11/28 11:17:27;;;;;;;3.88;2.10;;;;;;;6.89;100.00;100791.97;5206938;28;20063;-73
2023/11/28 11:19:59;;;;;;;3.50;2.35;;;;;;;6.91;100.00;100792.63;5199267;28;20033;-74
2023/11/28 11:22:32;;;;;;;2.78;1.98;;;;;;;6.89;100.00;100783.13;5204656;28;20369;-74
2023/11/28 11:25:03;;;;;;;4.70;2.22;;;;;;;6.86;100.00;100784.22;5202677;28;20021;-74
2023/11/28 11:27:34;;;;;;;3.53;1.90;;;;;;;6.72;100.00;100787.34;5202546;28;20048;-74
2023/11/28 11:30:06;;;;;;;5.22;2.30;;;;;;;6.70;100.00;100779.50;5205187;28;20017;-74
2023/11/28 11:32:36;;;;;;;5.68;2.00;;;;;;;6.67;100.00;100777.09;5216503;28;20033;-73
2023/11/28 11:35:10;;;;;;;3.42;2.10;;;;;;;6.57;100.00;100776.28;5201918;28;20820;-74
2023/11/28 11:37:42;;;;;;;4.95;2.20;;;;;;;6.57;100.00;100778.94;5201722;28;20037;-74